CPX236 Details

Departure: Washington Dulles International Airport (KIAD)
Arrival: March Air Reserve Base (KRIV) at N/A
Route: BUNZZ3 RAMAY Q72 HACKS J149 EMPTY J80 SAAGS J80 MCI J24 SLN J102 LAA J102 GUP J96 PKE J78 TRM ARKOE1
Notes:


Current Weather Information
KIAD 250352Z 02003KT 10SM SCT065 OVC080 19/13 A3022 RMK AO2 SLP230 T01940133 $
KRIV 250358Z AUTO 00000KT 10SM CLR 26/09 A2998 RMK AO2 SLP138 T02610090